Terminal Aerodrome Forecast
Issued by NWS Shreveport, LA

Home | Current Version | Previous Version | Text Only | Print | Product List | Glossary On
Versions: 1 2 3 4 5 6 7 8 9 10 11 12
541
FTUS44 KSHV 060540
TAFLFK
TAF
KLFK 060540Z 0606/0706 VRB03KT P6SM SCT300
     FM061500 10005KT P6SM FEW300=

USA.gov is the U.S. government's official web portal to all federal, state and local government web resources and services.